createdAt,value
2019-02-15T00:00:08.933Z,102701.30
2019-02-15T00:02:37.374Z,102706.48
2019-02-15T00:05:07.019Z,102702.52
2019-02-15T00:07:35.477Z,102703.77
2019-02-15T00:10:04.457Z,102704.14
2019-02-15T00:12:32.907Z,102704.98
2019-02-15T00:15:01.321Z,102705.83
2019-02-15T00:17:31.448Z,102707.97
2019-02-15T00:20:01.537Z,102711.41
2019-02-15T00:22:30.056Z,102710.48
2019-02-15T00:24:58.463Z,102711.72
2019-02-15T00:27:26.970Z,102712.97
2019-02-15T00:29:55.382Z,102711.17
2019-02-15T00:32:23.855Z,102707.67
2019-02-15T00:34:52.256Z,102711.55
2019-02-15T00:37:20.702Z,102702.79
2019-02-15T00:39:49.095Z,102705.77
2019-02-15T00:42:17.529Z,102708.34
2019-02-15T00:44:45.956Z,102706.92
2019-02-15T00:47:24.907Z,102704.30
2019-02-15T00:49:54.961Z,102701.17
2019-02-15T00:52:27.939Z,102698.97
2019-02-15T00:55:03.764Z,102692.38
2019-02-15T00:57:50.083Z,102692.38
2019-02-15T01:00:20.189Z,102690.59
2019-02-15T01:02:59.127Z,102697.95
2019-02-15T01:05:38.266Z,102699.70
2019-02-15T01:08:08.341Z,102702.64
2019-02-15T01:10:38.473Z,102700.47
2019-02-15T01:13:08.543Z,102695.67
2019-02-15T01:15:36.967Z,102697.41
2019-02-15T01:18:05.553Z,102700.41
2019-02-15T01:20:33.989Z,102699.95
2019-02-15T01:23:02.411Z,102703.77
2019-02-15T01:25:32.464Z,102700.64
2019-02-15T01:28:02.555Z,102693.61
2019-02-15T01:30:47.644Z,102694.51
2019-02-15T01:33:17.696Z,102693.95
2019-02-15T01:35:50.726Z,102695.26
2019-02-15T01:38:24.007Z,102692.19
2019-02-15T01:40:54.130Z,102691.70
2019-02-15T01:43:24.175Z,102691.23
2019-02-15T01:45:54.248Z,102685.95
2019-02-15T01:48:22.675Z,102682.82
2019-02-15T01:50:51.094Z,102681.48
2019-02-15T01:53:19.596Z,102671.87
2019-02-15T01:55:48.108Z,102673.08
2019-02-15T01:58:16.516Z,102670.48
2019-02-15T02:00:45.128Z,102669.95
2019-02-15T02:03:13.558Z,102662.93
2019-02-15T02:05:42.063Z,102665.50
2019-02-15T02:08:12.131Z,102657.70
2019-02-15T02:10:40.911Z,102649.38
2019-02-15T02:13:09.329Z,102648.45
2019-02-15T02:15:37.839Z,102646.23
2019-02-15T02:18:06.328Z,102646.56
2019-02-15T02:20:34.754Z,102646.47
2019-02-15T02:23:03.212Z,102648.23
2019-02-15T02:25:31.636Z,102651.30
2019-02-15T02:28:00.087Z,102639.11
2019-02-15T02:30:28.566Z,102644.25
2019-02-15T02:32:57.060Z,102646.38
2019-02-15T02:35:25.501Z,102645.39
2019-02-15T02:37:54.022Z,102641.93
2019-02-15T02:40:22.380Z,102635.30
2019-02-15T02:42:50.818Z,102634.38
2019-02-15T02:45:19.305Z,102638.71
2019-02-15T02:47:47.754Z,102639.05
2019-02-15T02:50:16.169Z,102631.25
2019-02-15T02:52:44.592Z,102629.95
2019-02-15T02:55:13.014Z,102624.27
2019-02-15T02:57:41.446Z,102630.30
2019-02-15T03:00:10.166Z,102634.20
2019-02-15T03:02:38.616Z,102628.08
2019-02-15T03:05:07.294Z,102626.27
2019-02-15T03:07:35.732Z,102620.61
2019-02-15T03:10:05.797Z,102623.12
2019-02-15T03:12:34.233Z,102617.92
2019-02-15T03:15:02.726Z,102618.30
2019-02-15T03:17:31.235Z,102609.58
2019-02-15T03:19:59.642Z,102611.18
2019-02-15T03:22:28.087Z,102606.76
2019-02-15T03:24:56.514Z,102608.03
2019-02-15T03:27:24.933Z,102603.23
2019-02-15T03:29:53.364Z,102603.17
2019-02-15T03:32:21.797Z,102610.96
2019-02-15T03:34:50.234Z,102615.59
2019-02-15T03:37:23.067Z,102613.30
2019-02-15T03:39:53.138Z,102612.38
2019-02-15T03:42:21.623Z,102617.10
2019-02-15T03:44:50.074Z,102617.02
2019-02-15T03:47:20.180Z,102617.38
2019-02-15T03:49:48.684Z,102612.58
2019-02-15T03:52:17.099Z,102606.92
2019-02-15T03:54:45.538Z,102609.92
2019-02-15T03:57:13.941Z,102610.29
2019-02-15T03:59:42.473Z,102609.83
2019-02-15T04:02:10.983Z,102601.51
2019-02-15T04:04:39.410Z,102610.66
2019-02-15T04:07:07.834Z,102603.70
2019-02-15T04:09:36.305Z,102605.84
2019-02-15T04:12:04.778Z,102603.61
2019-02-15T04:14:33.590Z,102606.14
2019-02-15T04:17:02.075Z,102597.89
2019-02-15T04:19:30.487Z,102609.17
2019-02-15T04:21:58.956Z,102602.61
2019-02-15T04:24:27.351Z,102602.14
2019-02-15T04:26:55.811Z,102602.98
2019-02-15T04:29:24.235Z,102605.95
2019-02-15T04:31:52.666Z,102609.34
2019-02-15T04:34:21.078Z,102604.11
2019-02-15T04:36:49.524Z,102603.22
2019-02-15T04:39:17.920Z,102595.40
2019-02-15T04:41:46.368Z,102601.42
2019-02-15T04:44:14.776Z,102603.95
2019-02-15T04:46:43.206Z,102599.66
2019-02-15T04:49:11.603Z,102604.41
2019-02-15T04:51:40.058Z,102603.55
2019-02-15T04:54:08.469Z,102601.75
2019-02-15T04:56:36.905Z,102598.69
2019-02-15T04:59:05.309Z,102597.77
2019-02-15T05:01:33.856Z,102606.81
2019-02-15T05:04:02.326Z,102607.22
2019-02-15T05:06:30.770Z,102605.81
2019-02-15T05:08:59.216Z,102605.28
2019-02-15T05:11:27.673Z,102606.02
2019-02-15T05:13:56.080Z,102604.72
2019-02-15T05:16:24.491Z,102606.78
2019-02-15T05:18:52.948Z,102601.52
2019-02-15T05:21:21.402Z,102604.52
2019-02-15T05:23:49.860Z,102606.11
2019-02-15T05:26:18.265Z,102600.45
2019-02-15T05:28:46.712Z,102601.29
2019-02-15T05:31:15.118Z,102599.09
2019-02-15T05:33:43.624Z,102603.81
2019-02-15T05:36:12.045Z,102605.48
2019-02-15T05:38:41.305Z,102605.87
2019-02-15T05:41:09.901Z,102602.34
2019-02-15T05:43:38.337Z,102604.94
2019-02-15T05:46:06.742Z,102604.18
2019-02-15T05:48:35.177Z,102592.87
2019-02-15T05:51:03.615Z,102597.16
2019-02-15T05:53:32.047Z,102600.58
2019-02-15T05:56:00.462Z,102603.14
2019-02-15T05:58:28.925Z,102602.71
2019-02-15T06:00:57.328Z,102600.08
2019-02-15T06:03:25.816Z,102602.14
2019-02-15T06:05:54.299Z,102607.80
2019-02-15T06:08:22.733Z,102607.36
2019-02-15T06:10:51.169Z,102598.72
2019-02-15T06:13:19.588Z,102597.98
2019-02-15T06:15:48.031Z,102597.95
2019-02-15T06:18:16.538Z,102597.89
2019-02-15T06:20:45.077Z,102597.42
2019-02-15T06:23:13.576Z,102597.72
2019-02-15T06:25:42.019Z,102601.61
2019-02-15T06:28:10.657Z,102602.04
2019-02-15T06:30:39.074Z,102603.67
2019-02-15T06:33:07.504Z,102599.31
2019-02-15T06:35:35.942Z,102607.09
2019-02-15T06:38:04.347Z,102600.97
2019-02-15T06:40:32.781Z,102608.75
2019-02-15T06:43:01.201Z,102613.87
2019-02-15T06:45:29.726Z,102610.88
2019-02-15T06:47:58.220Z,102610.41
2019-02-15T06:50:26.734Z,102605.12
2019-02-15T06:52:55.165Z,102606.77
2019-02-15T06:55:23.655Z,102608.47
2019-02-15T06:57:52.065Z,102614.95
2019-02-15T07:00:22.133Z,102611.13
2019-02-15T07:03:01.428Z,102616.32
2019-02-15T07:05:29.856Z,102615.42
2019-02-15T07:07:58.279Z,102614.59
2019-02-15T07:10:26.737Z,102620.25
2019-02-15T07:12:55.149Z,102619.02
2019-02-15T07:15:23.583Z,102625.53
2019-02-15T07:17:52.152Z,102627.27
2019-02-15T07:20:20.579Z,102622.16
2019-02-15T07:22:49.091Z,102630.33
2019-02-15T07:25:17.506Z,102626.04
2019-02-15T07:27:46.021Z,102621.32
2019-02-15T07:30:15.586Z,102622.25
2019-02-15T07:32:44.230Z,102621.89
2019-02-15T07:35:12.729Z,102617.17
2019-02-15T07:37:41.182Z,102621.59
2019-02-15T07:40:10.418Z,102626.49
2019-02-15T07:42:39.000Z,102617.88
2019-02-15T07:45:10.457Z,102614.95
2019-02-15T07:47:38.994Z,102609.84
2019-02-15T07:50:12.992Z,102617.25
2019-02-15T07:52:41.436Z,102620.45
2019-02-15T07:55:10.131Z,102618.32
2019-02-15T07:57:38.618Z,102616.27
2019-02-15T08:00:13.007Z,102617.63
2019-02-15T08:02:41.598Z,102622.45
2019-02-15T08:05:10.685Z,102615.59
2019-02-15T08:07:39.306Z,102612.77
2019-02-15T08:10:10.080Z,102616.77
2019-02-15T08:12:38.522Z,102616.46
2019-02-15T08:15:09.842Z,102609.21
2019-02-15T08:17:38.300Z,102608.84
2019-02-15T08:20:11.320Z,102617.66
2019-02-15T08:22:39.788Z,102604.84
2019-02-15T08:25:09.450Z,102609.36
2019-02-15T08:27:38.006Z,102605.20
2019-02-15T08:30:09.302Z,102608.85
2019-02-15T08:32:37.729Z,102606.81
2019-02-15T08:35:08.407Z,102602.70
2019-02-15T08:37:36.813Z,102602.00
2019-02-15T08:40:08.207Z,102599.58
2019-02-15T08:42:36.620Z,102591.88
2019-02-15T08:45:08.329Z,102592.87
2019-02-15T08:47:36.823Z,102592.66
2019-02-15T08:50:07.809Z,102597.16
2019-02-15T08:52:36.218Z,102584.76
2019-02-15T08:55:06.923Z,102583.64
2019-02-15T08:57:35.343Z,102590.34
2019-02-15T09:00:04.601Z,102591.79
2019-02-15T09:02:33.091Z,102588.00
2019-02-15T09:05:02.157Z,102588.61
2019-02-15T09:07:30.752Z,102584.91
2019-02-15T09:09:59.217Z,102591.19
2019-02-15T09:12:27.633Z,102584.45
2019-02-15T09:14:56.096Z,102582.91
2019-02-15T09:17:24.522Z,102590.07
2019-02-15T09:19:52.987Z,102579.42
2019-02-15T09:22:21.458Z,102585.31
2019-02-15T09:24:49.878Z,102585.12
2019-02-15T09:27:22.439Z,102588.02
2019-02-15T09:29:50.857Z,102567.40
2019-02-15T09:32:19.474Z,102573.38
2019-02-15T09:34:48.079Z,102567.98
2019-02-15T09:37:16.460Z,102564.33
2019-02-15T09:39:44.949Z,102562.44
2019-02-15T09:42:13.393Z,102565.39
2019-02-15T09:44:41.834Z,102563.48
2019-02-15T09:47:10.266Z,102556.37
2019-02-15T09:49:38.828Z,102559.71
2019-02-15T09:52:07.275Z,102553.84
2019-02-15T09:54:35.712Z,102554.52
2019-02-15T09:57:04.262Z,102551.23
2019-02-15T09:59:32.845Z,102556.27
2019-02-15T10:02:01.263Z,102550.01
2019-02-15T10:04:29.720Z,102556.75
2019-02-15T10:06:58.239Z,102552.23
2019-02-15T10:09:26.679Z,102552.48
2019-02-15T10:11:55.197Z,102554.45
2019-02-15T10:14:23.614Z,102554.24
2019-02-15T10:16:52.186Z,102548.39
2019-02-15T10:19:22.637Z,102549.08
2019-02-15T10:21:50.872Z,102552.86
2019-02-15T10:24:19.333Z,102551.35
2019-02-15T10:26:47.738Z,102544.17
2019-02-15T10:29:16.193Z,102543.56
2019-02-15T10:31:44.674Z,102549.51
2019-02-15T10:34:13.138Z,102550.97
2019-02-15T10:36:41.547Z,102538.89
2019-02-15T10:39:10.101Z,102538.11
2019-02-15T10:41:38.552Z,102543.58
2019-02-15T10:44:07.088Z,102546.37
2019-02-15T10:46:37.767Z,102542.56
2019-02-15T10:49:05.785Z,102538.86
2019-02-15T10:51:34.187Z,102537.31
2019-02-15T10:54:02.667Z,102531.41
2019-02-15T10:56:31.145Z,102522.78
2019-02-15T10:58:59.604Z,102523.36
2019-02-15T11:01:28.070Z,102514.33
2019-02-15T11:03:56.499Z,102513.58
2019-02-15T11:06:24.942Z,102513.28
2019-02-15T11:08:53.357Z,102513.41
2019-02-15T11:11:21.885Z,102513.98
2019-02-15T11:13:50.299Z,102513.63
2019-02-15T11:16:18.760Z,102517.23
2019-02-15T11:18:47.430Z,102513.37
2019-02-15T11:21:15.905Z,102508.57
2019-02-15T11:23:44.490Z,102502.09
2019-02-15T11:26:13.093Z,102498.67
2019-02-15T11:28:41.499Z,102494.78
2019-02-15T11:31:10.073Z,102495.23
2019-02-15T11:33:38.487Z,102489.59
2019-02-15T11:36:07.133Z,102485.19
2019-02-15T11:38:35.538Z,102483.41
2019-02-15T11:41:10.883Z,102478.10
2019-02-15T11:43:34.121Z,102473.25
2019-02-15T11:46:02.589Z,102467.92
2019-02-15T11:48:31.060Z,102467.44
2019-02-15T11:50:59.589Z,102458.18
2019-02-15T11:53:28.021Z,102448.84
2019-02-15T11:55:56.632Z,102447.81
2019-02-15T11:58:25.076Z,102455.21
2019-02-15T12:00:53.569Z,102451.52
2019-02-15T12:03:22.239Z,102453.13
2019-02-15T12:05:50.667Z,102442.88
2019-02-15T12:08:19.117Z,102438.24
2019-02-15T12:10:47.610Z,102438.95
2019-02-15T12:13:16.148Z,102432.21
2019-02-15T12:15:44.650Z,102423.65
2019-02-15T12:18:13.200Z,102417.67
2019-02-15T12:20:41.621Z,102423.95
2019-02-15T12:23:10.098Z,102424.43
2019-02-15T12:25:38.536Z,102419.72
2019-02-15T12:28:07.175Z,102414.22
2019-02-15T12:30:35.661Z,102406.89
2019-02-15T12:33:04.340Z,102407.47
2019-02-15T12:35:32.772Z,102404.89
2019-02-15T12:38:01.248Z,102401.94
2019-02-15T12:40:29.729Z,102388.34
2019-02-15T12:42:58.170Z,102389.63
2019-02-15T12:45:26.618Z,102383.28
2019-02-15T12:47:55.055Z,102380.45
2019-02-15T12:50:23.577Z,102372.11
2019-02-15T12:52:52.029Z,102374.06
2019-02-15T12:55:20.475Z,102372.05
2019-02-15T12:57:48.895Z,102369.80
2019-02-15T13:00:17.929Z,102369.00
2019-02-15T13:02:46.550Z,102357.66
2019-02-15T13:05:15.130Z,102351.38
2019-02-15T13:07:43.708Z,102343.65
2019-02-15T13:10:20.143Z,102340.17
2019-02-15T13:12:48.545Z,102340.66
2019-02-15T13:15:17.133Z,102334.38
2019-02-15T13:17:45.578Z,102331.87
2019-02-15T13:20:14.100Z,102330.95
2019-02-15T13:22:42.520Z,102331.37
2019-02-15T13:25:11.130Z,102322.80
2019-02-15T13:27:39.574Z,102318.14
2019-02-15T13:30:12.697Z,102313.13
2019-02-15T13:32:41.798Z,102300.73
2019-02-15T13:35:16.099Z,102303.97
2019-02-15T13:37:44.515Z,102307.28
2019-02-15T13:40:13.147Z,102305.55
2019-02-15T13:42:41.569Z,102303.02
2019-02-15T13:45:12.429Z,102296.84
2019-02-15T13:47:40.992Z,102296.58
2019-02-15T13:50:11.876Z,102297.64
2019-02-15T13:52:40.337Z,102289.94
2019-02-15T13:55:09.880Z,102286.87
2019-02-15T13:57:38.420Z,102293.83
2019-02-15T14:00:14.711Z,102281.79
2019-02-15T14:02:43.268Z,102284.58
2019-02-15T14:05:12.680Z,102274.97
2019-02-15T14:07:41.293Z,102271.94
2019-02-15T14:10:14.452Z,102269.69
2019-02-15T14:12:43.275Z,102268.22
2019-02-15T14:15:12.655Z,102262.02
2019-02-15T14:17:47.680Z,102256.80
2019-02-15T14:20:14.551Z,102256.53
2019-02-15T14:22:43.098Z,102256.53
2019-02-15T14:25:13.014Z,102250.94
2019-02-15T14:27:41.609Z,102255.52
2019-02-15T14:30:11.666Z,102246.95
2019-02-15T14:32:40.373Z,102243.72
2019-02-15T14:35:10.807Z,102233.74
2019-02-15T14:37:39.393Z,102236.02
2019-02-15T14:40:10.178Z,102234.39
2019-02-15T14:42:38.827Z,102231.89
2019-02-15T14:45:10.400Z,102228.55
2019-02-15T14:47:38.957Z,102220.86
2019-02-15T14:50:09.350Z,102221.07
2019-02-15T14:52:37.920Z,102221.67
2019-02-15T14:55:08.124Z,102219.25
2019-02-15T14:57:36.595Z,102217.07
2019-02-15T15:00:08.410Z,102213.64
2019-02-15T15:02:37.124Z,102203.84
2019-02-15T15:05:06.706Z,102205.06
2019-02-15T15:07:35.125Z,102201.86
2019-02-15T15:10:04.564Z,102203.05
2019-02-15T15:12:32.978Z,102203.77
2019-02-15T15:15:01.756Z,102194.30
2019-02-15T15:17:30.376Z,102192.72
2019-02-15T15:19:58.981Z,102189.39
2019-02-15T15:22:27.546Z,102186.95
2019-02-15T15:24:56.101Z,102183.19
2019-02-15T15:27:24.535Z,102177.16
2019-02-15T15:29:53.051Z,102177.75
2019-02-15T15:32:21.492Z,102171.28
2019-02-15T15:34:50.214Z,102172.34
2019-02-15T15:37:18.712Z,102167.20
2019-02-15T15:39:47.177Z,102166.43
2019-02-15T15:42:15.602Z,102163.48
2019-02-15T15:44:44.132Z,102163.58
2019-02-15T15:47:12.543Z,102162.40
2019-02-15T15:49:41.038Z,102160.37
2019-02-15T15:52:09.496Z,102153.00
2019-02-15T15:54:38.083Z,102160.58
2019-02-15T15:57:06.557Z,102155.84
2019-02-15T15:59:34.991Z,102155.44
2019-02-15T16:02:03.535Z,102151.13
2019-02-15T16:04:32.062Z,102144.22
2019-02-15T16:07:00.572Z,102141.66
2019-02-15T16:09:29.274Z,102140.88
2019-02-15T16:11:57.705Z,102136.18
2019-02-15T16:14:26.137Z,102134.93
2019-02-15T16:16:54.819Z,102132.80
2019-02-15T16:19:23.271Z,102135.08
2019-02-15T16:21:51.746Z,102136.92
2019-02-15T16:24:20.151Z,102140.52
2019-02-15T16:26:48.693Z,102138.84
2019-02-15T16:29:17.351Z,102142.91
2019-02-15T16:31:45.872Z,102144.28
2019-02-15T16:34:14.323Z,102140.42
2019-02-15T16:36:42.771Z,102137.83
2019-02-15T16:39:11.347Z,102139.67
2019-02-15T16:41:39.799Z,102129.65
2019-02-15T16:44:08.399Z,102128.38
2019-02-15T16:46:37.050Z,102125.37
2019-02-15T16:49:05.482Z,102121.94
2019-02-15T16:51:34.088Z,102118.92
2019-02-15T16:54:02.483Z,102125.55
2019-02-15T16:56:30.953Z,102123.86
2019-02-15T16:58:59.414Z,102126.11
2019-02-15T17:01:27.887Z,102127.47
2019-02-15T17:03:56.334Z,102126.20
2019-02-15T17:06:24.750Z,102121.86
2019-02-15T17:08:53.282Z,102128.92
2019-02-15T17:11:21.947Z,102130.31
2019-02-15T17:13:50.420Z,102129.46
2019-02-15T17:16:18.837Z,102130.39
2019-02-15T17:18:51.728Z,102130.00
2019-02-15T17:21:17.412Z,102133.12
2019-02-15T17:23:45.847Z,102138.42
2019-02-15T17:26:14.271Z,102135.44
2019-02-15T17:28:42.722Z,102135.89
2019-02-15T17:31:11.133Z,102132.86
2019-02-15T17:33:44.970Z,102131.15
2019-02-15T17:36:13.394Z,102124.59
2019-02-15T17:38:41.862Z,102126.83
2019-02-15T17:41:10.274Z,102133.89
2019-02-15T17:43:38.728Z,102126.91
2019-02-15T17:46:07.156Z,102126.05
2019-02-15T17:48:35.661Z,102121.70
2019-02-15T17:51:04.145Z,102122.19
2019-02-15T17:53:32.603Z,102127.47
2019-02-15T17:56:01.093Z,102123.97
2019-02-15T17:58:29.525Z,102123.56
2019-02-15T18:00:57.964Z,102128.84
2019-02-15T18:03:26.451Z,102126.23
2019-02-15T18:05:55.110Z,102126.25
2019-02-15T18:08:23.596Z,102122.33
2019-02-15T18:10:52.099Z,102125.83
2019-02-15T18:13:20.531Z,102125.88
2019-02-15T18:15:48.968Z,102125.89
2019-02-15T18:18:17.375Z,102127.66
2019-02-15T18:20:45.867Z,102121.11
2019-02-15T18:23:14.301Z,102124.61
2019-02-15T18:25:42.809Z,102123.77
2019-02-15T18:28:11.239Z,102118.95
2019-02-15T18:30:39.745Z,102117.65
2019-02-15T18:33:08.191Z,102117.66
2019-02-15T18:35:36.676Z,102112.42
2019-02-15T18:38:05.274Z,102111.13
2019-02-15T18:40:33.850Z,102114.62
2019-02-15T18:43:02.362Z,102111.56
2019-02-15T18:45:30.826Z,102112.04
2019-02-15T18:47:59.252Z,102109.42
2019-02-15T18:50:27.723Z,102108.13
2019-02-15T18:52:56.187Z,102103.30
2019-02-15T18:55:24.684Z,102105.05
2019-02-15T18:57:53.174Z,102106.38
2019-02-15T19:00:21.674Z,102104.64
2019-02-15T19:02:51.964Z,102105.53
2019-02-15T19:05:20.524Z,102102.88
2019-02-15T19:07:48.985Z,102102.46
2019-02-15T19:10:20.140Z,102098.95
2019-02-15T19:12:48.597Z,102097.61
2019-02-15T19:15:17.529Z,102107.27
2019-02-15T19:17:46.018Z,102096.32
2019-02-15T19:20:15.835Z,102094.59
2019-02-15T19:22:44.431Z,102102.02
2019-02-15T19:25:15.318Z,102105.05
2019-02-15T19:27:43.753Z,102104.63
2019-02-15T19:30:17.565Z,102098.09
2019-02-15T19:32:46.110Z,102095.44
2019-02-15T19:35:14.868Z,102096.33
2019-02-15T19:37:43.355Z,102103.31
2019-02-15T19:40:14.180Z,102102.01
2019-02-15T19:42:44.110Z,102100.23
2019-02-15T19:45:13.116Z,102097.18
2019-02-15T19:47:41.528Z,102092.36
2019-02-15T19:50:12.562Z,102092.78
2019-02-15T19:52:41.271Z,102092.38
2019-02-15T19:55:10.864Z,102091.92
2019-02-15T19:57:39.654Z,102085.34
2019-02-15T20:00:13.578Z,102084.03
2019-02-15T20:02:42.497Z,102083.14
2019-02-15T20:05:11.086Z,102086.20
2019-02-15T20:07:39.621Z,102084.88
2019-02-15T20:10:13.386Z,102086.64
2019-02-15T20:12:41.917Z,102087.50
2019-02-15T20:15:14.641Z,102096.66
2019-02-15T20:17:43.145Z,102090.98
2019-02-15T20:20:14.076Z,102086.59
2019-02-15T20:22:42.588Z,102087.43
2019-02-15T20:25:12.584Z,102087.43
2019-02-15T20:27:41.177Z,102093.54
2019-02-15T20:30:15.413Z,102093.54
2019-02-15T20:32:43.965Z,102083.04
2019-02-15T20:35:13.623Z,102080.82
2019-02-15T20:37:42.160Z,102087.82
2019-02-15T20:40:12.006Z,102083.88
2019-02-15T20:42:40.545Z,102087.78
2019-02-15T20:45:20.835Z,102090.34
2019-02-15T20:47:49.431Z,102084.68
2019-02-15T20:50:18.635Z,102078.94
2019-02-15T20:52:47.157Z,102081.16
2019-02-15T20:55:17.822Z,102078.49
2019-02-15T20:57:47.484Z,102075.39
2019-02-15T21:00:24.267Z,102075.39
2019-02-15T21:02:52.817Z,102084.55
2019-02-15T21:05:21.211Z,102084.56
2019-02-15T21:07:49.698Z,102084.11
2019-02-15T21:10:18.217Z,102086.70
2019-02-15T21:12:46.762Z,102081.00
2019-02-15T21:15:15.484Z,102084.93
2019-02-15T21:17:44.054Z,102090.13
2019-02-15T21:20:13.991Z,102085.31
2019-02-15T21:22:42.673Z,102082.27
2019-02-15T21:25:14.187Z,102089.64
2019-02-15T21:27:42.774Z,102085.69
2019-02-15T21:30:20.246Z,102085.69
2019-02-15T21:32:48.738Z,102089.59
2019-02-15T21:35:17.220Z,102083.47
2019-02-15T21:37:45.638Z,102084.28
2019-02-15T21:40:17.198Z,102088.62
2019-02-15T21:42:45.888Z,102087.30
2019-02-15T21:45:14.808Z,102088.56
2019-02-15T21:47:43.241Z,102086.36
2019-02-15T21:50:17.131Z,102086.77
2019-02-15T21:52:44.566Z,102089.77
2019-02-15T21:55:16.347Z,102089.75
2019-02-15T21:57:45.060Z,102089.28
2019-02-15T22:00:16.560Z,102086.20
2019-02-15T22:02:44.981Z,102086.63
2019-02-15T22:05:13.461Z,102085.30
2019-02-15T22:07:41.989Z,102072.18
2019-02-15T22:10:10.575Z,102081.30
2019-02-15T22:12:39.122Z,102077.81
2019-02-15T22:15:12.330Z,102067.31
2019-02-15T22:17:40.797Z,102069.88
2019-02-15T22:20:11.669Z,102070.30
2019-02-15T22:22:40.126Z,102061.55
2019-02-15T22:25:09.081Z,102060.66
2019-02-15T22:27:37.590Z,102062.42
2019-02-15T22:30:11.351Z,102054.11
2019-02-15T22:32:39.805Z,102054.09
2019-02-15T22:35:08.558Z,102056.23
2019-02-15T22:37:37.079Z,102053.16
2019-02-15T22:40:31.427Z,102052.25
2019-02-15T22:43:08.594Z,102057.45
2019-02-15T22:45:37.068Z,102054.78
2019-02-15T22:48:05.653Z,102058.65
2019-02-15T22:50:36.370Z,102058.18
2019-02-15T22:53:04.435Z,102059.45
2019-02-15T22:55:32.850Z,102047.23
2019-02-15T22:58:01.358Z,102049.38
2019-02-15T23:00:51.042Z,102047.63
2019-02-15T23:03:22.050Z,102046.72
2019-02-15T23:05:50.546Z,102044.05
2019-02-15T23:08:19.130Z,102040.52
2019-02-15T23:10:47.646Z,102042.22
2019-02-15T23:13:16.175Z,102047.83
2019-02-15T23:15:44.666Z,102043.45
2019-02-15T23:18:13.223Z,102042.11
2019-02-15T23:20:45.541Z,102033.78
2019-02-15T23:23:12.279Z,102031.14
2019-02-15T23:25:40.773Z,102033.72
2019-02-15T23:28:09.206Z,102034.14
2019-02-15T23:30:37.710Z,102039.30
2019-02-15T23:33:06.260Z,102036.69
2019-02-15T23:35:34.689Z,102040.99
2019-02-15T23:38:03.172Z,102033.55
2019-02-15T23:40:31.628Z,102043.09
2019-02-15T23:43:00.091Z,102036.09
2019-02-15T23:45:28.540Z,102035.62
2019-02-15T23:47:56.963Z,102037.78
2019-02-15T23:50:25.417Z,102037.75
2019-02-15T23:52:53.898Z,102034.22
2019-02-15T23:55:22.351Z,102038.55
2019-02-15T23:57:50.823Z,102043.32
